sensor_id;sensor_type;location;lat;lon;timestamp;P1;P2;P0
58740;PMS7003;44512;53.046;18.604;2023-07-22T00:06:04;2;1;1
58740;PMS7003;44512;53.046;18.604;2023-07-22T00:16:31;1;1;1
58740;PMS7003;44512;53.046;18.604;2023-07-22T00:27:00;2;2;1
58740;PMS7003;44512;53.046;18.604;2023-07-22T00:37:28;2;1;1
58740;PMS7003;44512;53.046;18.604;2023-07-22T00:47:56;3;2;2
58740;PMS7003;44512;53.046;18.604;2023-07-22T00:58:24;1;1;1
58740;PMS7003;44512;53.046;18.604;2023-07-22T01:08:53;1;1;1
58740;PMS7003;44512;53.046;18.604;2023-07-22T01:19:21;2;2;1
58740;PMS7003;44512;53.046;18.604;2023-07-22T01:29:53;2;1;1
58740;PMS7003;44512;53.046;18.604;2023-07-22T01:40:18;2;1;1
58740;PMS7003;44512;53.046;18.604;2023-07-22T01:50:46;1;1;1
58740;PMS7003;44512;53.046;18.604;2023-07-22T02:01:14;1;1;1
58740;PMS7003;44512;53.046;18.604;2023-07-22T02:11:43;2;2;2
58740;PMS7003;44512;53.046;18.604;2023-07-22T02:22:11;1;1;1
58740;PMS7003;44512;53.046;18.604;2023-07-22T02:32:40;3;2;1
58740;PMS7003;44512;53.046;18.604;2023-07-22T02:43:08;2;2;1
58740;PMS7003;44512;53.046;18.604;2023-07-22T02:53:36;2;2;2
58740;PMS7003;44512;53.046;18.604;2023-07-22T03:04:04;2;1;1
58740;PMS7003;44512;53.046;18.604;2023-07-22T03:14:33;2;2;2
58740;PMS7003;44512;53.046;18.604;2023-07-22T03:25:01;3;2;2
58740;PMS7003;44512;53.046;18.604;2023-07-22T03:35:30;2;2;1
58740;PMS7003;44512;53.046;18.604;2023-07-22T03:45:58;2;2;1
58740;PMS7003;44512;53.046;18.604;2023-07-22T03:56:26;2;2;2
58740;PMS7003;44512;53.046;18.604;2023-07-22T04:06:55;2;2;2
58740;PMS7003;44512;53.046;18.604;2023-07-22T04:17:23;5;3;2
58740;PMS7003;44512;53.046;18.604;2023-07-22T04:27:51;2;1;1
58740;PMS7003;44512;53.046;18.604;2023-07-22T04:38:20;3;2;1
58740;PMS7003;44512;53.046;18.604;2023-07-22T04:48:48;3;3;2
58740;PMS7003;44512;53.046;18.604;2023-07-22T04:59:16;3;3;2
58740;PMS7003;44512;53.046;18.604;2023-07-22T05:09:45;3;2;2
58740;PMS7003;44512;53.046;18.604;2023-07-22T05:20:13;2;2;2
58740;PMS7003;44512;53.046;18.604;2023-07-22T05:30:41;2;2;2
58740;PMS7003;44512;53.046;18.604;2023-07-22T05:41:10;2;2;1
58740;PMS7003;44512;53.046;18.604;2023-07-22T05:51:38;4;3;2
58740;PMS7003;44512;53.046;18.604;2023-07-22T06:02:07;3;3;2
58740;PMS7003;44512;53.046;18.604;2023-07-22T06:12:35;4;4;3
58740;PMS7003;44512;53.046;18.604;2023-07-22T06:23:03;4;3;3
58740;PMS7003;44512;53.046;18.604;2023-07-22T06:33:31;4;4;3
58740;PMS7003;44512;53.046;18.604;2023-07-22T06:44:00;5;3;3
58740;PMS7003;44512;53.046;18.604;2023-07-22T06:54:28;5;4;4
58740;PMS7003;44512;53.046;18.604;2023-07-22T07:04:57;4;4;3
58740;PMS7003;44512;53.046;18.604;2023-07-22T07:15:25;5;5;4
58740;PMS7003;44512;53.046;18.604;2023-07-22T07:25:53;5;5;5
58740;PMS7003;44512;53.046;18.604;2023-07-22T07:36:22;4;4;3
58740;PMS7003;44512;53.046;18.604;2023-07-22T07:46:50;3;3;3
58740;PMS7003;44512;53.046;18.604;2023-07-22T07:57:18;3;3;2
58740;PMS7003;44512;53.046;18.604;2023-07-22T08:07:47;2;1;1
58740;PMS7003;44512;53.046;18.604;2023-07-22T08:18:15;3;3;2
58740;PMS7003;44512;53.046;18.604;2023-07-22T08:28:43;3;3;3
58740;PMS7003;44512;53.046;18.604;2023-07-22T08:39:12;2;2;1
58740;PMS7003;44512;53.046;18.604;2023-07-22T08:49:41;2;2;2
58740;PMS7003;44512;53.046;18.604;2023-07-22T09:00:08;2;2;2
58740;PMS7003;44512;53.046;18.604;2023-07-22T09:10:37;3;2;2
58740;PMS7003;44512;53.046;18.604;2023-07-22T09:21:05;3;2;2
58740;PMS7003;44512;53.046;18.604;2023-07-22T09:31:33;3;3;3
58740;PMS7003;44512;53.046;18.604;2023-07-22T09:42:02;2;2;2
58740;PMS7003;44512;53.046;18.604;2023-07-22T09:52:30;3;2;2
58740;PMS7003;44512;53.046;18.604;2023-07-22T10:02:59;3;3;3
58740;PMS7003;44512;53.046;18.604;2023-07-22T10:13:27;4;4;4
58740;PMS7003;44512;53.046;18.604;2023-07-22T10:23:55;6;6;5
58740;PMS7003;44512;53.046;18.604;2023-07-22T10:34:23;9;8;7
58740;PMS7003;44512;53.046;18.604;2023-07-22T10:44:51;10;9;8
58740;PMS7003;44512;53.046;18.604;2023-07-22T10:55:20;10;10;9
58740;PMS7003;44512;53.046;18.604;2023-07-22T11:05:52;12;12;10
58740;PMS7003;44512;53.046;18.604;2023-07-22T11:16:16;11;10;9
58740;PMS7003;44512;53.046;18.604;2023-07-22T11:26:45;9;9;7
58740;PMS7003;44512;53.046;18.604;2023-07-22T11:37:13;9;7;5
58740;PMS7003;44512;53.046;18.604;2023-07-22T11:47:41;6;6;5
58740;PMS7003;44512;53.046;18.604;2023-07-22T11:58:10;7;6;6
58740;PMS7003;44512;53.046;18.604;2023-07-22T12:19:09;4;4;3
58740;PMS7003;44512;53.046;18.604;2023-07-22T12:29:35;6;5;5
58740;PMS7003;44512;53.046;18.604;2023-07-22T12:40:03;4;4;3
58740;PMS7003;44512;53.046;18.604;2023-07-22T12:50:32;5;5;4
58740;PMS7003;44512;53.046;18.604;2023-07-22T13:01:00;4;3;3
58740;PMS7003;44512;53.046;18.604;2023-07-22T13:11:28;4;4;3
58740;PMS7003;44512;53.046;18.604;2023-07-22T13:21:56;4;4;3
58740;PMS7003;44512;53.046;18.604;2023-07-22T13:32:26;5;4;3
58740;PMS7003;44512;53.046;18.604;2023-07-22T13:42:53;3;3;3
58740;PMS7003;44512;53.046;18.604;2023-07-22T13:53:21;4;3;2
58740;PMS7003;44512;53.046;18.604;2023-07-22T14:03:50;3;3;2
58740;PMS7003;44512;53.046;18.604;2023-07-22T14:14:18;2;2;1
58740;PMS7003;44512;53.046;18.604;2023-07-22T14:24:46;4;4;3
58740;PMS7003;44512;53.046;18.604;2023-07-22T14:35:15;4;3;3
58740;PMS7003;44512;53.046;18.604;2023-07-22T14:51:02;3;3;3
58740;PMS7003;44512;53.046;18.604;2023-07-22T15:11:58;2;2;1
58740;PMS7003;44512;53.046;18.604;2023-07-22T15:22:27;3;2;2
58740;PMS7003;44512;53.046;18.604;2023-07-22T15:32:55;2;2;2
58740;PMS7003;44512;53.046;18.604;2023-07-22T15:43:23;3;2;2
58740;PMS7003;44512;53.046;18.604;2023-07-22T15:53:52;4;3;2
58740;PMS7003;44512;53.046;18.604;2023-07-22T16:04:20;3;3;2
58740;PMS7003;44512;53.046;18.604;2023-07-22T16:14:48;2;2;2
58740;PMS7003;44512;53.046;18.604;2023-07-22T16:25:17;2;1;1
58740;PMS7003;44512;53.046;18.604;2023-07-22T16:35:45;3;2;2
58740;PMS7003;44512;53.046;18.604;2023-07-22T16:46:13;6;4;3
58740;PMS7003;44512;53.046;18.604;2023-07-22T16:56:42;3;1;1
58740;PMS7003;44512;53.046;18.604;2023-07-22T17:07:11;1;1;0
58740;PMS7003;44512;53.046;18.604;2023-07-22T17:17:38;5;0;0
58740;PMS7003;44512;53.046;18.604;2023-07-22T17:28:07;1;1;1
58740;PMS7003;44512;53.046;18.604;2023-07-22T17:38:35;2;1;1
58740;PMS7003;44512;53.046;18.604;2023-07-22T17:49:03;1;1;1
58740;PMS7003;44512;53.046;18.604;2023-07-22T17:59:32;0;0;0
58740;PMS7003;44512;53.046;18.604;2023-07-22T18:10:00;0;0;0
58740;PMS7003;44512;53.046;18.604;2023-07-22T18:20:29;0;0;0
58740;PMS7003;44512;53.046;18.604;2023-07-22T18:30:57;1;1;1
58740;PMS7003;44512;53.046;18.604;2023-07-22T18:41:25;1;1;1
58740;PMS7003;44512;53.046;18.604;2023-07-22T18:51:54;2;1;1
58740;PMS7003;44512;53.046;18.604;2023-07-22T19:02:22;2;2;2
58740;PMS7003;44512;53.046;18.604;2023-07-22T19:12:50;3;2;2
58740;PMS7003;44512;53.046;18.604;2023-07-22T19:23:19;3;3;3
58740;PMS7003;44512;53.046;18.604;2023-07-22T19:33:47;4;3;3
58740;PMS7003;44512;53.046;18.604;2023-07-22T19:44:15;3;3;2
58740;PMS7003;44512;53.046;18.604;2023-07-22T19:54:44;9;4;4
58740;PMS7003;44512;53.046;18.604;2023-07-22T20:05:12;3;3;3
58740;PMS7003;44512;53.046;18.604;2023-07-22T20:15:40;5;4;3
58740;PMS7003;44512;53.046;18.604;2023-07-22T20:26:09;4;4;3
58740;PMS7003;44512;53.046;18.604;2023-07-22T20:36:37;4;4;3
58740;PMS7003;44512;53.046;18.604;2023-07-22T20:47:06;4;3;3
58740;PMS7003;44512;53.046;18.604;2023-07-22T20:57:34;5;5;4
58740;PMS7003;44512;53.046;18.604;2023-07-22T21:08:02;4;4;3
58740;PMS7003;44512;53.046;18.604;2023-07-22T21:18:30;7;4;3
58740;PMS7003;44512;53.046;18.604;2023-07-22T21:28:59;8;6;5
58740;PMS7003;44512;53.046;18.604;2023-07-22T21:39:27;10;6;5
58740;PMS7003;44512;53.046;18.604;2023-07-22T21:49:55;7;6;5
58740;PMS7003;44512;53.046;18.604;2023-07-22T22:00:24;7;7;6
58740;PMS7003;44512;53.046;18.604;2023-07-22T22:10:52;7;6;5
58740;PMS7003;44512;53.046;18.604;2023-07-22T22:21:20;8;7;6
58740;PMS7003;44512;53.046;18.604;2023-07-22T22:31:49;8;8;6
58740;PMS7003;44512;53.046;18.604;2023-07-22T22:42:17;7;6;4
58740;PMS7003;44512;53.046;18.604;2023-07-22T22:52:46;12;9;6
58740;PMS7003;44512;53.046;18.604;2023-07-22T23:03:14;8;8;7
58740;PMS7003;44512;53.046;18.604;2023-07-22T23:13:46;12;10;6
58740;PMS7003;44512;53.046;18.604;2023-07-22T23:24:11;15;9;7
58740;PMS7003;44512;53.046;18.604;2023-07-22T23:34:39;13;12;8
58740;PMS7003;44512;53.046;18.604;2023-07-22T23:45:07;11;9;7
58740;PMS7003;44512;53.046;18.604;2023-07-22T23:55:36;10;8;7
